createdAt,value
2022-11-28T08:12:08.392Z,0.00
2022-11-28T08:12:13.871Z,2259.00
2022-11-28T08:13:13.841Z,2152.00
2022-11-28T08:14:13.826Z,2507.00
2022-11-28T08:15:13.843Z,2311.00
2022-11-28T08:16:13.868Z,2104.00
2022-11-28T08:17:13.794Z,2331.00
2022-11-28T08:18:13.792Z,2233.00
2022-11-28T08:19:13.770Z,2051.00
2022-11-28T08:20:13.762Z,1991.00
2022-11-28T08:21:13.771Z,2433.00
2022-11-28T08:22:13.778Z,2476.00
2022-11-28T08:23:13.755Z,2652.00
2022-11-28T08:24:13.734Z,2632.00
2022-11-28T08:25:14.735Z,2453.00
2022-11-28T08:26:13.702Z,2502.00
2022-11-28T08:27:13.710Z,2898.00
2022-11-28T08:28:13.722Z,2559.00
2022-11-28T08:29:13.722Z,2561.00
2022-11-28T08:30:13.685Z,2675.00
2022-11-28T08:31:13.757Z,2729.00
2022-11-28T08:32:13.642Z,2527.00
2022-11-28T08:33:13.645Z,2620.00
2022-11-28T08:34:13.649Z,2605.00
2022-11-28T08:35:13.806Z,2579.00
2022-11-28T08:36:13.609Z,2692.00
2022-11-28T08:37:13.616Z,2630.00
2022-11-28T08:38:13.602Z,2848.00
2022-11-28T08:39:29.027Z,3001.00
2022-11-28T08:40:13.587Z,2806.00
2022-11-28T08:41:13.563Z,3070.00
2022-11-28T08:42:13.549Z,2895.00
2022-11-28T08:43:13.556Z,2842.00
2022-11-28T08:44:13.540Z,3138.00
2022-11-28T08:45:13.577Z,3039.00
2022-11-28T08:46:13.732Z,3233.00
2022-11-28T08:47:13.540Z,3372.00
2022-11-28T08:48:13.513Z,3196.00
2022-11-28T08:49:13.521Z,2844.00
2022-11-28T08:50:13.475Z,2645.00
2022-11-28T08:51:13.471Z,3293.00
2022-11-28T08:52:13.470Z,3037.00
2022-11-28T08:53:18.660Z,3157.00
2022-11-28T08:54:13.480Z,2674.00
2022-11-28T08:55:13.454Z,2569.00
2022-11-28T08:56:13.415Z,2934.00
2022-11-28T08:57:13.507Z,2750.00
2022-11-28T08:58:13.413Z,3032.00
2022-11-28T08:59:13.389Z,3131.00
2022-11-28T09:00:13.404Z,2945.00
2022-11-28T09:01:13.460Z,2835.00
2022-11-28T09:02:13.353Z,2758.00
2022-11-28T09:03:13.352Z,2832.00
2022-11-28T09:04:13.401Z,2889.00
2022-11-28T09:05:13.335Z,3017.00
2022-11-28T09:06:13.340Z,3238.00
2022-11-28T09:07:13.473Z,3116.00
2022-11-28T09:08:13.301Z,3274.00
2022-11-28T09:09:13.307Z,3402.00
2022-11-28T09:10:13.506Z,3416.00
2022-11-28T09:11:13.270Z,3217.00
2022-11-28T09:12:13.263Z,3644.00
2022-11-28T09:13:13.272Z,3562.00
2022-11-28T09:14:13.255Z,3864.00
2022-11-28T09:15:13.248Z,3710.00
2022-11-28T09:16:13.242Z,3800.00
2022-11-28T09:17:13.481Z,3590.00
2022-11-28T09:18:13.210Z,3656.00
2022-11-28T09:19:13.205Z,3644.00
2022-11-28T09:20:13.195Z,3340.00
2022-11-28T09:21:13.183Z,3636.00
2022-11-28T09:22:13.170Z,3928.00
2022-11-28T09:23:13.175Z,3950.00
2022-11-28T09:24:13.150Z,3672.00
2022-11-28T09:25:13.152Z,3521.00
2022-11-28T09:26:13.144Z,3814.00
2022-11-28T09:27:13.191Z,3451.00
2022-11-28T09:28:13.109Z,4250.00
2022-11-28T09:29:13.115Z,3839.00
2022-11-28T09:30:13.096Z,4022.00
2022-11-28T09:31:13.164Z,4428.00
2022-11-28T09:32:13.092Z,4362.00
2022-11-28T09:33:13.082Z,4424.00
2022-11-28T09:34:13.055Z,4002.00
2022-11-28T09:35:13.051Z,4918.00
2022-11-28T09:36:13.051Z,4279.00
2022-11-28T09:37:13.032Z,4751.00
2022-11-28T09:38:13.016Z,4595.00
2022-11-28T09:39:13.023Z,4911.00
2022-11-28T09:40:13.953Z,4514.00
2022-11-28T09:41:12.997Z,4150.00
2022-11-28T09:42:13.004Z,4592.00
2022-11-28T09:43:12.975Z,4595.00
2022-11-28T09:44:12.975Z,4330.00
2022-11-28T09:45:12.979Z,4393.00
2022-11-28T09:46:13.030Z,5061.00
2022-11-28T09:47:12.923Z,4112.00
2022-11-28T09:48:12.912Z,4449.00
2022-11-28T09:49:12.906Z,4258.00
2022-11-28T09:50:12.910Z,4512.00
2022-11-28T09:51:12.913Z,4702.00
2022-11-28T09:52:12.928Z,4464.00
2022-11-28T09:53:12.868Z,4335.00
2022-11-28T09:54:12.875Z,4570.00
2022-11-28T09:55:12.873Z,4314.00
2022-11-28T09:56:12.858Z,4246.00
2022-11-28T09:57:12.931Z,4196.00
2022-11-28T09:58:12.817Z,4347.00
2022-11-28T09:59:12.810Z,4521.00
2022-11-28T10:00:12.811Z,4771.00
2022-11-28T10:01:12.829Z,4905.00
2022-11-28T10:02:12.796Z,4403.00
2022-11-28T10:03:12.869Z,4285.00
2022-11-28T10:04:12.903Z,4478.00
2022-11-28T10:05:12.790Z,4940.00
2022-11-28T10:06:12.746Z,4918.00
2022-11-28T10:07:12.775Z,5001.00
2022-11-28T10:08:12.726Z,4870.00
2022-11-28T10:09:12.748Z,5029.00
2022-11-28T10:10:12.702Z,4678.00
2022-11-28T10:11:12.690Z,4724.00
2022-11-28T10:12:12.716Z,4894.00
2022-11-28T10:13:12.667Z,4821.00
2022-11-28T10:14:12.679Z,4718.00
2022-11-28T10:15:12.678Z,4843.00
2022-11-28T10:16:12.713Z,4805.00
2022-11-28T10:17:12.698Z,4933.00
2022-11-28T10:18:12.628Z,4961.00
2022-11-28T10:19:31.692Z,4843.00
2022-11-28T10:20:12.641Z,4995.00
2022-11-28T10:21:12.629Z,4792.00
2022-11-28T10:22:12.580Z,4888.00
2022-11-28T10:23:12.579Z,5041.00
2022-11-28T10:24:12.574Z,4989.00
2022-11-28T10:25:12.572Z,4987.00
2022-11-28T10:26:12.549Z,4470.00
2022-11-28T10:27:12.530Z,4960.00
2022-11-28T10:28:12.542Z,4061.00
2022-11-28T10:29:12.514Z,3973.00
2022-11-28T10:30:12.529Z,4489.00
2022-11-28T10:31:12.531Z,4815.00
2022-11-28T10:32:12.527Z,4773.00
2022-11-28T10:33:12.474Z,4796.00
2022-11-28T10:34:12.472Z,4729.00
2022-11-28T10:35:12.451Z,4772.00
2022-11-28T10:36:12.464Z,4986.00
2022-11-28T10:37:12.429Z,5079.00
2022-11-28T10:38:12.431Z,5191.00
2022-11-28T10:39:12.431Z,5220.00
2022-11-28T10:40:12.413Z,5215.00
2022-11-28T10:41:12.396Z,5089.00
2022-11-28T10:42:13.088Z,5048.00
2022-11-28T10:43:12.413Z,4981.00
2022-11-28T10:44:15.834Z,4873.00
2022-11-28T10:45:12.368Z,4847.00
2022-11-28T10:46:12.435Z,4899.00
2022-11-28T10:47:12.331Z,4840.00
2022-11-28T10:48:38.617Z,4765.00
2022-11-28T10:49:12.339Z,4621.00
2022-11-28T10:50:12.309Z,4523.00
2022-11-28T10:51:12.372Z,4456.00
2022-11-28T10:52:12.297Z,4405.00
2022-11-28T10:53:12.273Z,4280.00
2022-11-28T10:54:12.270Z,4169.00
2022-11-28T10:55:12.278Z,4083.00
2022-11-28T10:56:12.256Z,3974.00
2022-11-28T10:57:12.251Z,3910.00
2022-11-28T10:58:12.256Z,3878.00
2022-11-28T10:59:12.250Z,3836.00
2022-11-28T11:00:12.237Z,3830.00
2022-11-28T11:01:12.243Z,3819.00
2022-11-28T11:02:12.198Z,3810.00
2022-11-28T11:03:12.183Z,3830.00
2022-11-28T11:04:12.215Z,3864.00
2022-11-28T11:05:12.199Z,3936.00
2022-11-28T11:06:12.154Z,4031.00
2022-11-28T11:07:17.646Z,4158.00
2022-11-28T11:08:12.316Z,4311.00
2022-11-28T11:09:12.126Z,4459.00
2022-11-28T11:10:12.114Z,4578.00
2022-11-28T11:11:12.117Z,4667.00
2022-11-28T11:12:12.096Z,4752.00
2022-11-28T11:13:12.086Z,4831.00
2022-11-28T11:14:12.095Z,4909.00
2022-11-28T11:15:12.061Z,4959.00
2022-11-28T11:16:12.137Z,5031.00
2022-11-28T11:17:12.041Z,5102.00
2022-11-28T11:18:12.042Z,5182.00
2022-11-28T11:19:12.032Z,5306.00
2022-11-28T11:20:12.028Z,5438.00
2022-11-28T11:21:12.031Z,5594.00
2022-11-28T11:22:12.002Z,5739.00
2022-11-28T11:23:11.981Z,5884.00
2022-11-28T11:24:11.991Z,6026.00
2022-11-28T11:25:11.984Z,6190.00
2022-11-28T11:26:11.966Z,6368.00
2022-11-28T11:27:11.984Z,6477.00
2022-11-28T11:28:11.947Z,6617.00
2022-11-28T11:29:11.935Z,6682.00
2022-11-28T11:30:11.924Z,6745.00
2022-11-28T11:31:11.932Z,6776.00
2022-11-28T11:32:11.909Z,6799.00
2022-11-28T11:33:11.912Z,6775.00
2022-11-28T11:34:11.884Z,6754.00
2022-11-28T11:35:11.910Z,6721.00
2022-11-28T11:36:11.900Z,6662.00
2022-11-28T11:37:11.850Z,6598.00
2022-11-28T11:38:11.845Z,6554.00
2022-11-28T11:39:11.827Z,6519.00
2022-11-28T11:40:11.829Z,6479.00
2022-11-28T11:41:11.819Z,6485.00
2022-11-28T11:42:11.829Z,6476.00
2022-11-28T11:43:11.790Z,6540.00
2022-11-28T11:44:11.796Z,6528.00
2022-11-28T11:45:11.776Z,6524.00
2022-11-28T11:46:11.828Z,6467.00
2022-11-28T11:47:11.755Z,6374.00
2022-11-28T11:48:11.748Z,6271.00
2022-11-28T11:49:11.740Z,6191.00
2022-11-28T11:50:11.724Z,6105.00
2022-11-28T11:51:11.709Z,6081.00
2022-11-28T11:52:11.705Z,6086.00
2022-11-28T11:53:11.695Z,6139.00
2022-11-28T11:54:11.682Z,6202.00
2022-11-28T11:55:11.763Z,6278.00
2022-11-28T11:56:11.709Z,6328.00
2022-11-28T11:57:32.070Z,6406.00
2022-11-28T11:58:11.678Z,6429.00
2022-11-28T11:59:11.637Z,6457.00
2022-11-28T12:00:11.646Z,6487.00
2022-11-28T12:01:11.627Z,6519.00
2022-11-28T12:02:11.625Z,6573.00
2022-11-28T12:03:11.692Z,6606.00
2022-11-28T12:04:37.080Z,6618.00
2022-11-28T12:05:11.585Z,6674.00
2022-11-28T12:06:15.409Z,6682.00
2022-11-28T12:07:11.560Z,6748.00
2022-11-28T12:08:11.590Z,6774.00
2022-11-28T12:09:11.531Z,6845.00
2022-11-28T12:10:11.525Z,6858.00
2022-11-28T12:11:11.549Z,6872.00
2022-11-28T12:12:11.532Z,6864.00
2022-11-28T12:13:11.508Z,6828.00
2022-11-28T12:14:11.506Z,6766.00
2022-11-28T12:15:11.491Z,6757.00
2022-11-28T12:16:11.513Z,6690.00
2022-11-28T12:17:40.532Z,6675.00
2022-11-28T12:29:23.029Z,6643.00
2022-11-28T12:29:28.479Z,7170.00
2022-11-28T12:30:28.470Z,5947.00
2022-11-28T12:31:28.495Z,5889.00
2022-11-28T12:32:28.450Z,5818.00
2022-11-28T12:33:28.459Z,5762.00
2022-11-28T12:34:28.444Z,5700.00
2022-11-28T12:35:28.437Z,5646.00
2022-11-28T12:36:28.406Z,5636.00
2022-11-28T12:37:42.013Z,5628.00
2022-11-28T12:38:28.442Z,5638.00
2022-11-28T12:39:28.377Z,5667.00
2022-11-28T12:40:28.366Z,5687.00
2022-11-28T12:41:32.415Z,5652.00
2022-11-28T12:42:28.347Z,5642.00
2022-11-28T12:43:28.346Z,5597.00
2022-11-28T12:44:28.349Z,5476.00
2022-11-28T12:45:28.315Z,5380.00
2022-11-28T12:46:28.437Z,5261.00
2022-11-28T12:47:28.298Z,5131.00
2022-11-28T12:48:28.290Z,5026.00
2022-11-28T12:49:28.287Z,4923.00
2022-11-28T12:50:28.300Z,4860.00
2022-11-28T12:51:28.288Z,4781.00
2022-11-28T12:52:28.249Z,4701.00
2022-11-28T12:53:28.237Z,4623.00
2022-11-28T12:54:28.250Z,4517.00
2022-11-28T12:55:28.220Z,4411.00
2022-11-28T12:56:28.234Z,4286.00
2022-11-28T12:57:28.196Z,4127.00
2022-11-28T12:58:28.189Z,3976.00
2022-11-28T12:59:28.218Z,3842.00
2022-11-28T13:00:28.188Z,3724.00
2022-11-28T13:01:28.237Z,3610.00
2022-11-28T13:02:28.344Z,3542.00
2022-11-28T13:03:28.208Z,3465.00
2022-11-28T13:04:28.132Z,3409.00
2022-11-28T13:05:28.122Z,3368.00
2022-11-28T13:06:28.127Z,3349.00
2022-11-28T13:07:28.136Z,3346.00
2022-11-28T13:08:28.109Z,3328.00
2022-11-28T13:09:28.084Z,3294.00
2022-11-28T13:10:28.070Z,3281.00
2022-11-28T13:11:28.062Z,3281.00
2022-11-28T13:12:28.047Z,3265.00
2022-11-28T13:13:28.069Z,3279.00
2022-11-28T13:14:28.156Z,3292.00
2022-11-28T13:15:28.131Z,3267.00
2022-11-28T13:16:28.051Z,3271.00
2022-11-28T13:17:28.005Z,3242.00
2022-11-28T13:18:28.005Z,3218.00
2022-11-28T13:19:27.977Z,3185.00
2022-11-28T13:20:27.981Z,3139.00
2022-11-28T13:21:27.992Z,3097.00
2022-11-28T13:22:28.011Z,3059.00
2022-11-28T13:23:27.936Z,3045.00
2022-11-28T13:24:27.938Z,3031.00
2022-11-28T13:25:27.919Z,3051.00
2022-11-28T13:26:27.930Z,3073.00
2022-11-28T13:27:27.930Z,3082.00
2022-11-28T13:28:27.895Z,3052.00
2022-11-28T13:29:27.941Z,3032.00
2022-11-28T13:30:27.877Z,2995.00
2022-11-28T13:31:28.011Z,2934.00
2022-11-28T13:32:27.860Z,2882.00
2022-11-28T13:33:27.845Z,2839.00
2022-11-28T13:34:27.825Z,2809.00
2022-11-28T13:35:27.826Z,2793.00
2022-11-28T13:38:36.912Z,2732.00
2022-11-28T13:39:27.790Z,2708.00
2022-11-28T13:40:27.783Z,2695.00
2022-11-28T13:42:03.423Z,2659.00
2022-11-28T13:43:27.765Z,2581.00
2022-11-28T13:44:27.740Z,2529.00
2022-11-28T13:45:31.983Z,2443.00
2022-11-28T13:46:27.757Z,2381.00
2022-11-28T13:47:27.842Z,2337.00
2022-11-28T13:48:49.824Z,2308.00
2022-11-28T13:49:27.688Z,2273.00
2022-11-28T13:50:27.683Z,2267.00
2022-11-28T13:51:31.577Z,2275.00
2022-11-28T13:52:27.651Z,2297.00
2022-11-28T13:53:27.649Z,2285.00
2022-11-28T13:54:27.645Z,2265.00
2022-11-28T13:55:27.670Z,2233.00
2022-11-28T13:56:27.634Z,2193.00
2022-11-28T13:57:27.628Z,2147.00
2022-11-28T13:58:28.452Z,2110.00
2022-11-28T13:59:27.623Z,2069.00
2022-11-28T14:00:27.975Z,2019.00
2022-11-28T14:01:27.711Z,1969.00
2022-11-28T14:02:27.726Z,1957.00
2022-11-28T14:03:27.630Z,1991.00
2022-11-28T14:04:27.551Z,2058.00
2022-11-28T14:05:27.538Z,2106.00
2022-11-28T14:06:27.524Z,2156.00
2022-11-28T14:07:27.601Z,2169.00
2022-11-28T14:08:27.503Z,2144.00
2022-11-28T14:09:27.483Z,2111.00
2022-11-28T14:10:27.485Z,2065.00
2022-11-28T14:11:28.156Z,2010.00
2022-11-28T14:12:27.475Z,1938.00
2022-11-28T14:13:27.523Z,1852.00
2022-11-28T14:14:27.447Z,1758.00
2022-11-28T14:15:27.442Z,1669.00
2022-11-28T14:16:27.512Z,1601.00
2022-11-28T14:17:27.413Z,1550.00
2022-11-28T14:19:27.399Z,1460.00
2022-11-28T14:20:27.378Z,1420.00
2022-11-28T14:21:27.386Z,1374.00
2022-11-28T14:22:27.396Z,1341.00
2022-11-28T14:23:27.755Z,1317.00
2022-11-28T14:24:27.333Z,1302.00
2022-11-28T14:25:27.354Z,1285.00
2022-11-28T14:26:27.345Z,1271.00
2022-11-28T14:27:27.316Z,1260.00
2022-11-28T14:28:27.304Z,1260.00
2022-11-28T14:29:27.287Z,1253.00
2022-11-28T14:30:27.301Z,1246.00
2022-11-28T14:31:27.374Z,1234.00
2022-11-28T14:32:31.318Z,1222.00
2022-11-28T14:33:27.264Z,1199.00
2022-11-28T14:34:27.247Z,1168.00
2022-11-28T14:35:27.229Z,1113.00
2022-11-28T14:36:27.227Z,1062.00
2022-11-28T14:37:27.238Z,1023.00
2022-11-28T14:38:27.224Z,981.00
2022-11-28T14:39:27.209Z,957.00
2022-11-28T14:40:27.185Z,939.00
2022-11-28T14:41:27.174Z,920.00
2022-11-28T14:43:27.176Z,899.00
2022-11-28T14:44:27.177Z,901.00
2022-11-28T14:45:27.217Z,917.00
2022-11-28T14:46:27.269Z,914.00
2022-11-28T14:47:27.150Z,902.00
2022-11-28T14:48:27.158Z,878.00
2022-11-28T14:49:27.096Z,852.00
2022-11-28T14:50:27.089Z,838.00
2022-11-28T14:51:27.088Z,827.00
2022-11-28T14:52:42.381Z,817.00
2022-11-28T14:53:27.067Z,810.00
2022-11-28T14:54:27.046Z,799.00
2022-11-28T14:55:27.048Z,785.00
2022-11-28T14:56:27.030Z,758.00
2022-11-28T14:57:27.024Z,745.00
2022-11-28T14:58:27.017Z,717.00
2022-11-28T14:59:27.030Z,700.00
2022-11-28T15:00:27.003Z,693.00
2022-11-28T15:01:27.282Z,688.00
2022-11-28T15:02:27.094Z,683.00
2022-11-28T15:03:27.109Z,671.00
2022-11-28T15:04:26.955Z,663.00
2022-11-28T15:05:26.985Z,647.00
2022-11-28T15:06:26.928Z,627.00
2022-11-28T15:07:26.966Z,604.00
2022-11-28T15:08:26.913Z,586.00
2022-11-28T15:09:26.903Z,553.00
2022-11-28T15:10:26.914Z,523.00
2022-11-28T15:11:26.897Z,498.00
2022-11-28T15:12:26.876Z,475.00
2022-11-28T15:13:26.865Z,448.00
2022-11-28T15:14:26.867Z,423.00
2022-11-28T15:15:26.844Z,405.00
2022-11-28T15:16:26.912Z,384.00
2022-11-28T15:17:26.834Z,363.00
2022-11-28T15:18:26.805Z,344.00
2022-11-28T15:19:26.806Z,318.00
2022-11-28T15:20:26.797Z,298.00
2022-11-28T15:21:26.792Z,273.00
2022-11-28T15:22:26.796Z,251.00
2022-11-28T15:23:26.763Z,229.00
2022-11-28T15:24:26.753Z,206.00
2022-11-28T15:25:26.759Z,188.00
2022-11-28T15:26:26.746Z,165.00
2022-11-28T15:27:26.753Z,152.00
2022-11-28T15:28:26.723Z,137.00
2022-11-28T15:29:26.722Z,131.00
2022-11-28T15:30:26.973Z,120.00
2022-11-28T15:31:26.757Z,111.00
2022-11-28T15:32:26.693Z,102.00
2022-11-28T15:33:26.664Z,93.00
2022-11-28T15:34:26.677Z,85.00
2022-11-28T15:35:26.669Z,80.00
2022-11-28T15:36:26.632Z,72.00
2022-11-28T15:37:26.630Z,67.00
2022-11-28T15:38:26.632Z,64.00
2022-11-28T15:39:26.650Z,56.00
2022-11-28T15:40:26.599Z,52.00
2022-11-28T15:41:26.590Z,44.00
2022-11-28T15:42:26.572Z,38.00
2022-11-28T15:43:26.654Z,34.00
2022-11-28T15:44:26.569Z,28.00
2022-11-28T15:45:26.567Z,22.00
2022-11-28T15:46:26.630Z,24.00
2022-11-28T15:47:26.559Z,17.00
2022-11-28T15:48:26.510Z,15.00
2022-11-28T15:49:26.525Z,13.00
2022-11-28T15:50:26.525Z,7.00
2022-11-28T15:51:26.508Z,5.00
2022-11-28T15:52:26.482Z,10.00
2022-11-28T15:53:26.465Z,7.00
2022-11-28T15:54:26.460Z,5.00
2022-11-28T15:55:26.461Z,2.00
2022-11-28T15:56:26.448Z,1.00
2022-11-28T15:57:26.430Z,2.00
2022-11-28T15:58:26.421Z,2.00
2022-11-28T15:59:26.428Z,1.00
2022-11-28T16:00:26.394Z,2.00
2022-11-28T16:01:26.493Z,1.00
2022-11-28T16:02:26.461Z,1.00
2022-11-28T16:03:26.502Z,0.00
2022-11-28T16:04:26.838Z,0.00
2022-11-28T16:05:27.532Z,0.00
2022-11-28T16:06:26.671Z,0.00
2022-11-28T16:07:27.416Z,0.00
2022-11-28T16:08:26.433Z,0.00
2022-11-28T16:09:26.389Z,0.00
2022-11-28T16:10:26.352Z,0.00
2022-11-28T16:11:26.352Z,0.00
2022-11-28T16:12:26.367Z,0.00
2022-11-28T16:13:26.340Z,0.00
2022-11-28T16:14:26.345Z,0.00
2022-11-28T16:15:26.309Z,0.00
2022-11-28T16:16:26.375Z,0.00
2022-11-28T16:17:26.288Z,0.00
2022-11-28T16:18:26.300Z,0.00
2022-11-28T16:19:26.344Z,0.00
2022-11-28T16:20:26.264Z,0.00
2022-11-28T16:21:26.265Z,0.00
2022-11-28T16:22:26.258Z,0.00
2022-11-28T16:23:26.224Z,0.00
2022-11-28T16:24:26.240Z,0.00
2022-11-28T16:25:26.207Z,0.00
2022-11-28T16:26:26.207Z,0.00
2022-11-28T16:27:26.226Z,0.00
2022-11-28T16:28:26.212Z,0.00
2022-11-28T16:29:30.523Z,0.00
2022-11-28T16:30:26.182Z,0.00
2022-11-28T16:31:26.223Z,0.00
2022-11-28T16:32:26.149Z,0.00
2022-11-28T16:33:26.155Z,0.00
2022-11-28T16:34:26.210Z,0.00
2022-11-28T16:35:26.167Z,0.00
2022-11-28T16:36:26.104Z,0.00
2022-11-28T16:37:26.090Z,0.00
2022-11-28T16:38:26.088Z,0.00
2022-11-28T16:39:26.097Z,0.00
2022-11-28T16:40:26.076Z,0.00
2022-11-28T16:41:26.052Z,0.00
2022-11-28T16:42:26.042Z,0.00
2022-11-28T16:43:26.046Z,0.00
2022-11-28T16:44:26.035Z,0.00
2022-11-28T16:45:26.089Z,0.00
2022-11-28T16:46:25.999Z,0.00
2022-11-28T16:47:26.001Z,0.00
2022-11-28T16:48:25.997Z,0.00
2022-11-28T16:49:25.992Z,0.00
2022-11-28T16:50:26.002Z,0.00
2022-11-28T16:51:25.971Z,0.00
2022-11-28T16:52:25.952Z,0.00
2022-11-28T16:53:25.938Z,0.00
2022-11-28T16:54:25.927Z,0.00
2022-11-28T16:55:25.911Z,0.00
2022-11-28T16:56:25.955Z,0.00
2022-11-28T16:57:30.245Z,0.00
2022-11-28T16:58:25.893Z,0.00
2022-11-28T16:59:25.884Z,0.00
2022-11-28T17:00:25.891Z,0.00
2022-11-28T17:01:25.916Z,0.00
2022-11-28T17:02:25.942Z,0.00
2022-11-28T17:03:25.847Z,0.00
2022-11-28T17:04:25.900Z,0.00
2022-11-28T17:05:25.841Z,0.00
2022-11-28T17:06:25.820Z,0.00
2022-11-28T17:07:25.829Z,0.00
2022-11-28T17:08:30.270Z,0.00
2022-11-28T17:09:25.827Z,0.00
2022-11-28T17:10:25.832Z,0.00
2022-11-28T17:11:25.772Z,0.00
2022-11-28T17:12:25.746Z,0.00
2022-11-28T17:13:25.761Z,0.00
2022-11-28T17:14:25.763Z,0.00
2022-11-28T17:15:25.741Z,0.00
2022-11-28T17:16:25.785Z,0.00
2022-11-28T17:17:25.701Z,0.00
2022-11-28T17:18:25.688Z,0.00
2022-11-28T17:19:25.697Z,0.00
2022-11-28T17:20:25.725Z,0.00
2022-11-28T17:21:25.674Z,0.00
2022-11-28T17:22:25.670Z,0.00
2022-11-28T17:23:25.640Z,0.00
2022-11-28T17:24:25.634Z,0.00
2022-11-28T17:25:25.640Z,0.00
2022-11-28T17:26:25.641Z,0.00
2022-11-28T17:27:25.617Z,0.00
2022-11-28T17:28:29.101Z,0.00
2022-11-28T17:29:25.613Z,0.00
2022-11-28T17:30:25.606Z,0.00
2022-11-28T17:31:25.597Z,0.00
2022-11-28T17:32:25.551Z,0.00
2022-11-28T17:33:25.555Z,0.00
2022-11-28T17:34:25.527Z,0.00
2022-11-28T17:35:25.544Z,0.00
2022-11-28T17:36:25.546Z,0.00
2022-11-28T17:37:25.526Z,0.00
2022-11-28T17:38:25.507Z,0.00
2022-11-28T17:39:25.487Z,0.00
2022-11-28T17:40:25.501Z,0.00
2022-11-28T17:41:25.473Z,0.00
2022-11-28T17:42:25.455Z,0.00
2022-11-28T17:43:25.448Z,0.00
2022-11-28T17:44:25.462Z,0.00
2022-11-28T17:45:25.544Z,0.00
2022-11-28T17:46:25.427Z,0.00
2022-11-28T17:47:25.414Z,0.00
2022-11-28T17:48:25.401Z,0.00
2022-11-28T17:49:25.445Z,0.00
2022-11-28T17:50:25.384Z,0.00
2022-11-28T17:51:25.397Z,0.00
2022-11-28T17:52:25.367Z,0.00
2022-11-28T17:53:25.378Z,0.00
2022-11-28T17:54:25.388Z,0.00
2022-11-28T17:55:25.332Z,0.00
2022-11-28T17:56:25.330Z,0.00
2022-11-28T17:57:25.333Z,0.00
2022-11-28T17:58:25.300Z,0.00
2022-11-28T17:59:25.294Z,0.00
2022-11-28T18:00:25.288Z,0.00
2022-11-28T18:01:25.327Z,0.00
2022-11-28T18:02:25.309Z,0.00
2022-11-28T18:03:25.249Z,0.00
2022-11-28T18:04:25.255Z,0.00
2022-11-28T18:05:25.236Z,0.00
2022-11-28T18:06:25.225Z,0.00
2022-11-28T18:07:25.260Z,0.00
2022-11-28T18:08:25.230Z,0.00
2022-11-28T18:09:25.196Z,0.00
2022-11-28T18:10:25.189Z,0.00
2022-11-28T18:11:25.173Z,0.00
2022-11-28T18:12:25.195Z,0.00
2022-11-28T18:13:25.163Z,0.00
2022-11-28T18:14:25.170Z,0.00
2022-11-28T18:15:25.130Z,0.00
2022-11-28T18:16:25.169Z,0.00
2022-11-28T18:17:25.134Z,0.00
2022-11-28T18:18:25.106Z,0.00
2022-11-28T18:19:25.099Z,0.00
2022-11-28T18:20:25.106Z,0.00
2022-11-28T18:21:25.097Z,0.00
2022-11-28T18:22:25.083Z,0.00
2022-11-28T18:23:25.066Z,0.00
2022-11-28T18:24:25.055Z,0.00
2022-11-28T18:25:25.062Z,0.00
2022-11-28T18:26:25.046Z,0.00
2022-11-28T18:27:25.019Z,0.00
2022-11-28T18:28:25.012Z,0.00
2022-11-28T18:29:25.025Z,0.00
2022-11-28T18:30:24.995Z,0.00
2022-11-28T18:31:25.062Z,0.00
2022-11-28T18:32:24.968Z,0.00
2022-11-28T18:33:24.956Z,0.00
2022-11-28T18:34:24.952Z,0.00
2022-11-28T18:35:24.967Z,0.00
2022-11-28T18:36:24.933Z,0.00
2022-11-28T18:37:24.922Z,0.00
2022-11-28T18:38:24.917Z,0.00
2022-11-28T18:39:24.905Z,0.00
2022-11-28T18:40:24.915Z,0.00
2022-11-28T18:41:24.928Z,0.00
2022-11-28T18:42:24.880Z,0.00
2022-11-28T18:43:24.857Z,0.00
2022-11-28T18:44:24.858Z,0.00
2022-11-28T18:45:24.845Z,0.00
2022-11-28T18:46:24.860Z,0.00
2022-11-28T18:47:24.885Z,0.00
2022-11-28T18:48:24.836Z,0.00
2022-11-28T18:49:24.798Z,0.00
2022-11-28T18:50:24.818Z,0.00
2022-11-28T18:51:24.789Z,0.00
2022-11-28T18:52:24.776Z,0.00
2022-11-28T18:53:24.784Z,0.00
2022-11-28T18:54:24.772Z,0.00
2022-11-28T18:55:24.768Z,0.00
2022-11-28T18:56:24.734Z,0.00
2022-11-28T18:57:24.726Z,0.00
2022-11-28T18:58:24.737Z,0.00
2022-11-28T18:59:24.705Z,0.00
2022-11-28T19:00:24.707Z,0.00
2022-11-28T19:01:24.763Z,0.00
2022-11-28T19:02:24.739Z,0.00
2022-11-28T19:03:24.703Z,0.00
2022-11-28T19:04:24.712Z,0.00
2022-11-28T19:05:24.729Z,0.00
2022-11-28T19:06:24.642Z,0.00
2022-11-28T19:07:24.662Z,0.00
2022-11-28T19:08:24.644Z,0.00
2022-11-28T19:09:24.635Z,0.00
2022-11-28T19:10:24.610Z,0.00
2022-11-28T19:11:24.631Z,0.00
2022-11-28T19:12:24.592Z,0.00
2022-11-28T19:13:24.580Z,0.00
2022-11-28T19:14:24.586Z,0.00
2022-11-28T19:15:24.560Z,0.00
2022-11-28T19:16:24.595Z,0.00
2022-11-28T19:17:24.529Z,0.00
2022-11-28T19:18:24.543Z,0.00
2022-11-28T19:19:24.516Z,0.00
2022-11-28T19:20:24.524Z,0.00
2022-11-28T19:21:24.543Z,0.00
2022-11-28T19:22:24.513Z,0.00
2022-11-28T19:23:24.477Z,0.00
2022-11-28T19:24:24.469Z,0.00
2022-11-28T19:25:24.459Z,0.00
2022-11-28T19:26:24.442Z,0.00
2022-11-28T19:27:24.434Z,0.00
2022-11-28T19:28:24.455Z,0.00
2022-11-28T19:29:24.418Z,0.00
2022-11-28T19:30:24.413Z,0.00
2022-11-28T19:31:24.486Z,0.00
2022-11-28T19:32:24.400Z,0.00
2022-11-28T19:33:24.374Z,0.00
2022-11-28T19:34:24.366Z,0.00
2022-11-28T19:35:24.392Z,0.00
2022-11-28T19:36:24.354Z,0.00
2022-11-28T19:37:24.361Z,0.00
2022-11-28T19:38:24.328Z,0.00
2022-11-28T19:39:24.357Z,0.00
2022-11-28T19:40:24.314Z,0.00
2022-11-28T19:41:24.295Z,0.00
2022-11-28T19:42:24.293Z,0.00
2022-11-28T19:43:24.299Z,0.00
2022-11-28T19:44:24.296Z,0.00
2022-11-28T19:45:24.257Z,0.00
2022-11-28T19:46:24.258Z,0.00
2022-11-28T19:47:24.250Z,0.00
2022-11-28T19:48:24.230Z,0.00
2022-11-28T19:49:24.232Z,0.00
2022-11-28T19:50:24.227Z,0.00
2022-11-28T19:51:24.217Z,0.00
2022-11-28T19:52:24.215Z,0.00
2022-11-28T19:53:24.179Z,0.00
2022-11-28T19:54:24.242Z,0.00
2022-11-28T19:55:24.175Z,0.00
2022-11-28T19:56:24.161Z,0.00
2022-11-28T19:57:24.143Z,0.00
2022-11-28T19:58:24.134Z,0.00
2022-11-28T19:59:24.129Z,0.00
2022-11-28T20:00:24.140Z,0.00
2022-11-28T20:01:24.242Z,0.00
2022-11-28T20:02:24.145Z,0.00
2022-11-28T20:03:24.096Z,0.00
2022-11-28T20:04:24.094Z,0.00
2022-11-28T20:05:24.097Z,0.00
2022-11-28T20:06:24.053Z,0.00
2022-11-28T20:07:24.078Z,0.00
2022-11-28T20:08:24.037Z,0.00
2022-11-28T20:09:24.029Z,0.00
2022-11-28T20:10:24.018Z,0.00
2022-11-28T20:11:24.024Z,0.00
2022-11-28T20:12:23.999Z,0.00
2022-11-28T20:13:24.000Z,0.00
2022-11-28T20:14:23.980Z,0.00
2022-11-28T20:15:23.996Z,0.00
2022-11-28T20:16:23.975Z,0.00
2022-11-28T20:17:23.958Z,0.00
2022-11-28T20:18:23.942Z,0.00
2022-11-28T20:19:23.974Z,0.00
2022-11-28T20:20:23.939Z,0.00
2022-11-28T20:21:23.916Z,0.00
2022-11-28T20:22:23.898Z,0.00
2022-11-28T20:23:23.901Z,0.00
2022-11-28T20:24:23.877Z,0.00
2022-11-28T20:25:23.889Z,0.00
2022-11-28T20:26:23.860Z,0.00
2022-11-28T20:27:23.865Z,0.00
2022-11-28T20:28:23.842Z,0.00
2022-11-28T20:29:23.828Z,0.00
2022-11-28T20:30:23.865Z,0.00
2022-11-28T20:31:23.949Z,0.00
2022-11-28T20:32:23.824Z,0.00
2022-11-28T20:33:23.825Z,0.00
2022-11-28T20:34:23.796Z,0.00
2022-11-28T20:35:23.813Z,0.00
2022-11-28T20:36:23.789Z,0.00
2022-11-28T20:37:23.756Z,0.00
2022-11-28T20:38:23.745Z,0.00
2022-11-28T20:39:23.748Z,0.00
2022-11-28T20:40:23.729Z,0.00
2022-11-28T20:41:23.718Z,0.00
2022-11-28T20:42:23.725Z,0.00
2022-11-28T20:43:23.696Z,0.00
2022-11-28T20:44:23.681Z,0.00
2022-11-28T20:45:23.680Z,0.00
2022-11-28T20:46:23.672Z,0.00
2022-11-28T20:47:23.671Z,0.00
2022-11-28T20:48:23.652Z,0.00
2022-11-28T20:49:23.666Z,0.00
2022-11-28T20:50:23.640Z,0.00
2022-11-28T20:51:23.620Z,0.00
2022-11-28T20:52:23.613Z,0.00
2022-11-28T20:53:26.794Z,0.00
2022-11-28T20:54:23.602Z,0.00
2022-11-28T20:55:23.578Z,0.00
2022-11-28T20:56:23.579Z,0.00
2022-11-28T20:57:23.558Z,0.00
2022-11-28T20:58:23.552Z,0.00
2022-11-28T20:59:23.561Z,0.00
2022-11-28T21:00:26.579Z,0.00
2022-11-28T21:01:23.652Z,0.00
2022-11-28T21:02:23.593Z,0.00
2022-11-28T21:03:23.509Z,0.00